Time;durP1;ratioP1;P1;durP2;ratioP2;P2;SDS_P1;SDS_P2;PMS_P1;PMS_P2;Temp;Humidity;BMP_temperature;BMP_pressure;BME280_temperature;BME280_humidity;BME280_pressure;Samples;Min_cycle;Max_cycle;Signal;HPM_P1;HPM_P2
2022/10/16 00:00:44;;;;;;;1.30;1.20;;;17.40;70.10;18.60;100298.00;;;;4971317;28;20650;-47
2022/10/16 00:03:10;;;;;;;1.60;1.50;;;17.50;70.30;18.60;100313.00;;;;4971670;28;20239;-47
2022/10/16 00:05:41;;;;;;;1.40;1.30;;;17.40;70.10;18.50;100310.00;;;;4969982;28;20170;-47
2022/10/16 00:08:08;;;;;;;1.30;1.30;;;17.50;70.10;18.50;100308.00;;;;4970966;28;20318;-47
2022/10/16 00:10:34;;;;;;;1.20;1.20;;;17.50;70.10;18.50;100312.00;;;;4971394;28;20180;-47
2022/10/16 00:12:59;;;;;;;1.70;1.57;;;17.50;70.10;18.50;100305.00;;;;4971389;28;20190;-46
2022/10/16 00:15:25;;;;;;;1.30;1.23;;;17.40;70.20;18.50;100305.00;;;;4970722;28;20171;-47
2022/10/16 00:17:51;;;;;;;1.30;1.20;;;17.40;70.10;18.50;100307.00;;;;4970689;28;20545;-46
2022/10/16 00:20:17;;;;;;;1.47;1.37;;;17.40;70.10;18.50;100323.00;;;;4970621;28;20677;-47
2022/10/16 00:22:42;;;;;;;1.20;1.20;;;17.40;70.10;18.50;100331.00;;;;4970468;28;20176;-46
2022/10/16 00:25:08;;;;;;;1.30;1.30;;;17.40;70.10;18.50;100337.00;;;;4971444;28;20176;-46
2022/10/16 00:27:34;;;;;;;1.53;1.43;;;17.40;70.10;18.50;100337.00;;;;4973532;28;20326;-46
2022/10/16 00:30:00;;;;;;;1.27;1.20;;;17.40;70.20;18.50;100335.00;;;;4973900;28;20216;-47
2022/10/16 00:32:25;;;;;;;1.30;1.30;;;17.40;70.10;18.50;100343.00;;;;4970904;28;20177;-47
2022/10/16 00:34:54;;;;;;;1.57;1.47;;;17.40;70.20;18.50;100321.00;;;;4969070;28;20180;-48
2022/10/16 00:37:20;;;;;;;1.00;1.00;;;17.40;70.10;18.50;100325.00;;;;4970762;28;20202;-48
2022/10/16 00:39:46;;;;;;;1.23;1.23;;;17.40;70.20;18.50;100315.00;;;;4970428;28;20208;-47
2022/10/16 00:42:16;;;;;;;1.13;1.13;;;17.40;70.20;18.50;100323.00;;;;4970811;28;20169;-47
2022/10/16 00:44:55;;;;;;;1.20;1.20;;;17.40;70.20;18.50;100325.00;;;;4970773;28;20169;-47
2022/10/16 00:47:38;;;;;;;1.20;1.20;;;17.40;70.10;18.50;100319.00;;;;4970663;28;20219;-47
2022/10/16 00:50:22;;;;;;;1.10;1.10;;;17.40;70.10;18.50;100321.00;;;;4970421;28;20167;-48
2022/10/16 00:52:48;;;;;;;1.33;1.30;;;17.40;70.10;18.50;100321.00;;;;4955504;28;20698;-46
2022/10/16 00:55:14;;;;;;;1.23;1.17;;;17.40;70.10;18.50;100316.00;;;;4972604;28;20232;-47
2022/10/16 00:57:39;;;;;;;1.50;1.40;;;17.40;70.20;18.50;100315.00;;;;4954759;28;20267;-47
2022/10/16 01:00:08;;;;;;;1.30;1.30;;;17.30;70.10;18.50;100306.00;;;;4969616;28;20264;-47
2022/10/16 01:02:33;;;;;;;1.20;1.20;;;17.30;70.10;18.50;100306.00;;;;4974766;28;20208;-47
2022/10/16 01:04:59;;;;;;;1.10;1.10;;;17.30;70.10;18.50;100311.00;;;;4974498;28;20642;-47
2022/10/16 01:07:44;;;;;;;1.50;1.23;;;17.30;70.10;18.50;100309.00;;;;4973774;28;20687;-47
2022/10/16 01:10:32;;;;;;;1.83;1.33;;;17.40;70.20;18.50;100313.00;;;;4974897;28;20165;-46
2022/10/16 01:13:06;;;;;;;1.20;1.20;;;17.30;70.10;18.50;100335.00;;;;4973587;28;20167;-47
2022/10/16 01:15:47;;;;;;;1.20;1.20;;;17.30;70.10;18.50;100306.00;;;;4973650;28;20509;-47
2022/10/16 01:18:47;;;;;;;1.37;1.33;;;17.30;70.00;18.50;100321.00;;;;4974407;28;20696;-46
2022/10/16 01:21:30;;;;;;;1.57;1.47;;;17.40;70.10;18.40;100315.00;;;;4921084;28;20186;-47
2022/10/16 01:24:38;;;;;;;1.30;1.30;;;17.30;70.10;18.40;100325.00;;;;4972936;28;20155;-47
2022/10/16 01:27:20;;;;;;;1.40;1.30;;;17.30;70.00;18.40;100338.00;;;;4974434;28;20208;-48
2022/10/16 01:30:02;;;;;;;1.60;1.50;;;17.40;70.20;18.40;100339.00;;;;4958683;28;20250;-47
2022/10/16 01:32:49;;;;;;;1.40;1.30;;;17.30;70.10;18.40;100342.00;;;;4973159;28;20171;-47
2022/10/16 01:35:25;;;;;;;1.17;1.10;;;17.30;70.00;18.40;100325.00;;;;4974286;28;20167;-47
2022/10/16 01:38:08;;;;;;;1.30;1.20;;;17.30;70.00;18.40;100322.00;;;;4974214;28;20286;-48
2022/10/16 01:40:35;;;;;;;1.40;1.30;;;17.30;70.00;18.40;100319.00;;;;4973846;28;20197;-48
2022/10/16 01:43:08;;;;;;;1.27;1.27;;;17.30;70.00;18.40;100335.00;;;;4957897;28;20231;-46
2022/10/16 01:45:34;;;;;;;1.33;1.27;;;17.30;70.80;18.40;100335.00;;;;4974196;28;20200;-46
2022/10/16 01:48:03;;;;;;;1.23;1.23;;;17.30;70.00;18.40;100345.00;;;;4972602;28;20289;-47
2022/10/16 01:50:29;;;;;;;1.20;1.20;;;17.30;70.00;18.40;100326.00;;;;4972932;28;20652;-47
2022/10/16 01:52:55;;;;;;;1.57;1.47;;;17.30;70.00;18.40;100325.00;;;;4972517;28;20171;-47
2022/10/16 01:55:28;;;;;;;1.30;1.30;;;17.30;70.10;18.40;100260.00;;;;4972384;28;20184;-47
2022/10/16 01:57:53;;;;;;;1.13;1.13;;;17.30;70.10;18.40;100325.00;;;;4973063;28;20216;-47
2022/10/16 02:00:19;;;;;;;1.10;1.10;;;17.30;70.10;18.40;100334.00;;;;4972597;28;20177;-48
2022/10/16 02:02:48;;;;;;;1.33;1.23;;;17.30;70.00;18.40;100340.00;;;;4972581;28;20261;-48
2022/10/16 02:05:21;;;;;;;1.20;1.20;;;17.30;70.10;18.40;100342.00;;;;4971872;28;20179;-46
2022/10/16 02:07:48;;;;;;;1.10;1.10;;;17.20;70.00;18.40;100347.00;;;;4972174;28;20195;-47
2022/10/16 02:10:14;;;;;;;1.50;1.40;;;17.30;70.10;18.40;100341.00;;;;4973206;28;20268;-46
2022/10/16 02:12:43;;;;;;;1.10;1.10;;;17.30;70.00;18.40;100342.00;;;;4972078;28;20441;-47
2022/10/16 02:15:08;;;;;;;1.10;1.10;;;17.30;70.10;18.40;100334.00;;;;4955816;28;20186;-48
2022/10/16 02:17:34;;;;;;;1.10;1.10;;;17.30;70.10;18.40;100335.00;;;;4973118;28;20673;-47
2022/10/16 02:20:00;;;;;;;1.20;1.20;;;17.20;70.00;18.40;100331.00;;;;4972953;28;20287;-47
2022/10/16 02:22:39;;;;;;;1.20;1.20;;;17.20;69.90;18.40;100340.00;;;;4971931;28;20203;-47
2022/10/16 02:25:12;;;;;;;0.97;0.97;;;17.30;70.10;18.40;100345.00;;;;4972862;28;20167;-46
2022/10/16 02:28:07;;;;;;;1.27;1.20;;;17.20;70.00;18.40;100351.00;;;;4973153;28;20742;-47
2022/10/16 02:30:40;;;;;;;1.60;1.50;;;17.30;70.80;18.40;100354.00;;;;4966772;28;20683;-47
2022/10/16 02:33:08;;;;;;;1.00;1.00;;;17.20;70.00;18.40;100357.00;;;;4973640;28;20237;-47
2022/10/16 02:35:34;;;;;;;1.50;1.40;;;17.20;69.90;18.40;100355.00;;;;4972855;28;20201;-47
2022/10/16 02:37:59;;;;;;;1.23;1.23;;;17.20;69.90;18.40;100356.00;;;;4971574;28;20193;-47
2022/10/16 02:40:25;;;;;;;1.40;1.30;;;17.20;70.00;18.40;100354.00;;;;4971227;28;20173;-48
2022/10/16 02:42:52;;;;;;;1.53;1.27;;;17.20;70.00;18.40;100353.00;;;;4954978;28;20219;-46
2022/10/16 02:45:18;;;;;;;1.37;1.27;;;17.20;70.00;18.30;100347.00;;;;4971079;28;20177;-46
2022/10/16 02:47:44;;;;;;;1.10;1.10;;;17.20;69.90;18.40;100352.00;;;;4970935;28;20609;-45
2022/10/16 02:50:10;;;;;;;1.03;1.03;;;17.20;69.90;18.30;100355.00;;;;4972744;28;20205;-46
2022/10/16 02:52:35;;;;;;;2.10;1.23;;;17.20;69.90;18.30;100348.00;;;;4972034;28;20207;-46
2022/10/16 02:55:01;;;;;;;1.43;1.33;;;17.20;69.90;18.30;100357.00;;;;4972034;28;20679;-48
2022/10/16 02:57:27;;;;;;;1.10;1.10;;;17.20;70.00;18.30;100352.00;;;;4972067;28;20201;-49
2022/10/16 02:59:53;;;;;;;1.17;1.03;;;17.20;70.00;18.30;100352.00;;;;4972975;28;20221;-48
2022/10/16 03:02:19;;;;;;;2.60;1.20;;;17.20;69.90;18.30;100361.00;;;;4972333;28;20173;-48
2022/10/16 03:04:44;;;;;;;2.17;1.20;;;17.20;70.00;18.30;100352.00;;;;4972277;28;20176;-48
2022/10/16 03:07:10;;;;;;;1.67;1.20;;;17.20;69.90;18.30;100356.00;;;;4972260;28;20188;-46
2022/10/16 03:09:36;;;;;;;1.50;1.40;;;17.20;70.00;18.30;100362.00;;;;4972276;28;20204;-46
2022/10/16 03:12:01;;;;;;;2.03;1.30;;;17.20;69.90;18.30;100351.00;;;;4972677;28;20179;-47
2022/10/16 03:14:27;;;;;;;2.83;1.40;;;17.20;69.90;18.30;100351.00;;;;4972423;28;20327;-48
2022/10/16 03:16:53;;;;;;;1.53;1.40;;;17.20;70.70;18.30;100352.00;;;;4972093;28;20283;-46
2022/10/16 03:19:19;;;;;;;1.57;1.10;;;17.10;69.90;18.30;100344.00;;;;4972059;28;20201;-46
2022/10/16 03:21:45;;;;;;;4.00;1.50;;;17.20;70.00;18.30;100335.00;;;;4972565;28;20653;-45
2022/10/16 03:24:10;;;;;;;1.77;1.40;;;17.20;70.00;18.30;100314.00;;;;4971155;28;20170;-45
2022/10/16 03:26:36;;;;;;;3.20;1.40;;;17.10;69.90;18.30;100336.00;;;;4972064;28;20686;-47
2022/10/16 03:29:03;;;;;;;2.30;1.40;;;17.10;69.90;18.30;100337.00;;;;4971365;28;20803;-47
2022/10/16 03:31:31;;;;;;;2.00;1.20;;;17.10;69.90;18.30;100334.00;;;;4972076;28;20181;-46
2022/10/16 03:33:57;;;;;;;2.63;1.87;;;17.10;69.90;18.30;100346.00;;;;4971602;28;20170;-47
2022/10/16 03:36:22;;;;;;;1.90;1.40;;;17.20;69.90;18.30;100335.00;;;;4971676;28;20339;-47
2022/10/16 03:38:48;;;;;;;2.30;1.20;;;17.20;69.90;18.30;100358.00;;;;4971373;28;20211;-47
2022/10/16 03:41:14;;;;;;;2.60;1.57;;;17.10;69.90;18.30;100367.00;;;;4971824;28;20205;-47
2022/10/16 03:43:40;;;;;;;2.83;1.13;;;17.10;69.90;18.30;100365.00;;;;4971490;28;20255;-47
2022/10/16 03:46:05;;;;;;;1.30;1.20;;;17.10;70.10;18.30;100335.00;;;;4971668;28;20169;-47
2022/10/16 03:48:32;;;;;;;2.13;1.37;;;17.10;69.90;18.30;100354.00;;;;4971639;28;20216;-47
2022/10/16 03:50:58;;;;;;;1.47;1.37;;;17.10;69.90;18.30;100346.00;;;;4971849;28;20181;-48
2022/10/16 03:53:23;;;;;;;1.20;1.10;;;17.10;69.90;18.30;100348.00;;;;4970812;28;20252;-46
2022/10/16 03:55:49;;;;;;;1.73;1.20;;;17.10;69.90;18.30;100360.00;;;;4971455;28;20276;-46
2022/10/16 03:58:15;;;;;;;1.70;1.20;;;17.10;69.90;18.30;100370.00;;;;4971554;28;20210;-48
2022/10/16 04:00:46;;;;;;;2.77;1.30;;;17.10;69.90;18.30;100374.00;;;;4971890;28;20655;-47
2022/10/16 04:03:12;;;;;;;2.40;1.10;;;17.10;70.00;18.20;100386.00;;;;4971627;28;20175;-46
2022/10/16 04:05:38;;;;;;;1.60;1.50;;;17.10;69.90;18.20;100383.00;;;;4971552;28;20172;-48
2022/10/16 04:08:04;;;;;;;2.03;1.20;;;17.10;69.90;18.20;100389.00;;;;4971145;28;20200;-49
2022/10/16 04:10:29;;;;;;;2.67;1.50;;;17.10;70.00;18.20;100383.00;;;;4971407;28;20172;-48
2022/10/16 04:12:55;;;;;;;1.70;1.23;;;17.10;69.90;18.20;100382.00;;;;4971231;28;20171;-47
2022/10/16 04:15:25;;;;;;;1.50;1.40;;;17.10;69.90;18.20;100364.00;;;;4970868;28;20173;-47
2022/10/16 04:17:50;;;;;;;1.40;1.30;;;17.10;70.00;18.20;100385.00;;;;4969956;28;20193;-46
2022/10/16 04:20:16;;;;;;;1.50;1.40;;;17.10;69.90;18.20;100384.00;;;;4970944;28;20573;-46
2022/10/16 04:22:42;;;;;;;1.43;1.30;;;17.10;70.00;18.20;100393.00;;;;4971077;28;20183;-48
2022/10/16 04:25:08;;;;;;;1.40;1.30;;;17.10;70.00;18.20;100390.00;;;;4970972;28;20187;-46
2022/10/16 04:27:34;;;;;;;1.47;1.37;;;17.10;70.00;18.20;100398.00;;;;4970855;28;20198;-47
2022/10/16 04:30:00;;;;;;;1.43;1.33;;;17.10;70.00;18.20;100398.00;;;;4970893;28;20174;-46
2022/10/16 04:32:26;;;;;;;1.30;1.20;;;17.10;69.90;18.20;100401.00;;;;4970650;28;20174;-46
2022/10/16 04:34:52;;;;;;;3.10;1.20;;;17.10;70.00;18.20;100407.00;;;;4969904;28;20232;-46
2022/10/16 04:37:18;;;;;;;1.13;1.13;;;17.10;70.00;18.20;100405.00;;;;4969763;28;20668;-48
2022/10/16 04:39:44;;;;;;;1.00;1.00;;;17.10;70.00;17.70;100398.00;;;;4970569;28;20280;-48
2022/10/16 04:42:10;;;;;;;1.53;1.37;;;17.10;70.00;18.20;100405.00;;;;4972273;28;20191;-47
2022/10/16 04:44:36;;;;;;;1.30;1.20;;;17.00;69.90;18.20;100405.00;;;;4969035;28;20174;-47
2022/10/16 04:47:02;;;;;;;1.30;1.30;;;17.10;70.00;18.20;100397.00;;;;4971399;28;20189;-49
2022/10/16 04:49:27;;;;;;;1.53;1.43;;;17.00;69.90;18.20;100326.00;;;;4971846;28;20548;-48
2022/10/16 04:51:53;;;;;;;1.30;1.20;;;17.10;70.00;18.20;100411.00;;;;4971318;28;20545;-48
2022/10/16 04:54:19;;;;;;;1.40;1.30;;;17.00;69.90;18.20;100400.00;;;;4971112;28;20193;-47
2022/10/16 04:56:50;;;;;;;1.30;1.30;;;17.10;70.00;18.20;100410.00;;;;4972208;28;20251;-47
2022/10/16 04:59:16;;;;;;;1.30;1.20;;;17.00;69.90;18.20;100413.00;;;;4974237;28;20198;-47
2022/10/16 05:01:42;;;;;;;2.23;1.13;;;17.00;69.90;18.20;100429.00;;;;4972874;28;20169;-47
2022/10/16 05:04:07;;;;;;;1.43;1.33;;;17.00;69.90;18.20;100442.00;;;;4971790;28;20182;-48
2022/10/16 05:06:33;;;;;;;1.17;1.17;;;17.00;69.90;18.20;100422.00;;;;4971218;28;20181;-47
2022/10/16 05:08:59;;;;;;;2.23;1.40;;;17.00;69.90;18.20;100421.00;;;;4971440;28;20622;-47
2022/10/16 05:11:25;;;;;;;1.50;1.40;;;17.00;69.90;18.20;100414.00;;;;4971386;28;20181;-47
2022/10/16 05:13:50;;;;;;;1.10;1.10;;;17.00;70.00;18.20;100435.00;;;;4970674;28;20201;-48
2022/10/16 05:16:16;;;;;;;1.40;1.30;;;17.00;69.90;18.20;100441.00;;;;4971003;28;20549;-47
2022/10/16 05:18:42;;;;;;;1.57;1.30;;;17.00;69.90;18.20;100444.00;;;;4971073;28;20234;-47
2022/10/16 05:21:07;;;;;;;1.27;1.20;;;17.00;69.90;18.10;100435.00;;;;4971172;28;20746;-47
2022/10/16 05:23:33;;;;;;;1.40;1.30;;;17.00;69.90;18.10;100441.00;;;;4970830;28;20185;-47
2022/10/16 05:25:59;;;;;;;1.23;1.20;;;17.00;69.90;18.10;100454.00;;;;4973290;28;20238;-48
2022/10/16 05:28:26;;;;;;;1.23;1.13;;;17.00;69.90;18.10;100457.00;;;;4979532;28;20194;-46
2022/10/16 05:30:52;;;;;;;1.33;1.00;;;17.00;70.00;18.10;100457.00;;;;4973868;28;20186;-48
2022/10/16 05:33:20;;;;;;;1.40;1.30;;;17.00;69.90;18.20;100460.00;;;;4970767;28;20181;-48
2022/10/16 05:35:46;;;;;;;1.37;1.30;;;17.00;69.90;18.10;100462.00;;;;4971114;28;20263;-48
2022/10/16 05:38:12;;;;;;;1.20;1.20;;;17.00;69.90;18.10;100467.00;;;;4970756;28;20209;-48
2022/10/16 05:40:38;;;;;;;1.17;1.17;;;17.00;69.90;18.10;100458.00;;;;4971075;28;20179;-48
2022/10/16 05:43:03;;;;;;;0.87;0.87;;;17.00;69.90;18.10;100468.00;;;;4970985;28;20177;-46
2022/10/16 05:45:29;;;;;;;1.40;1.30;;;17.00;69.90;18.10;100469.00;;;;4970604;28;20177;-46
2022/10/16 05:47:55;;;;;;;1.13;1.13;;;17.00;69.90;18.10;100473.00;;;;4972788;28;20251;-47
2022/10/16 05:50:20;;;;;;;1.13;1.13;;;17.00;69.80;18.10;100479.00;;;;4974820;28;20177;-46
2022/10/16 05:52:46;;;;;;;1.10;1.10;;;17.00;69.80;18.10;100482.00;;;;4973963;28;20187;-48
2022/10/16 05:55:12;;;;;;;1.40;1.30;;;17.00;69.80;18.10;100475.00;;;;4974358;28;20181;-48
2022/10/16 05:57:38;;;;;;;1.23;1.20;;;17.00;69.90;18.10;100479.00;;;;4973912;28;20553;-47
2022/10/16 06:00:05;;;;;;;1.20;1.10;;;16.90;69.80;18.10;100483.00;;;;4974320;28;20281;-47
2022/10/16 06:02:30;;;;;;;1.67;1.20;;;17.00;69.90;18.10;100496.00;;;;4974221;28;20535;-48
2022/10/16 06:04:56;;;;;;;1.50;1.27;;;16.90;69.80;18.10;100493.00;;;;4973806;28;20178;-47
2022/10/16 06:07:22;;;;;;;1.07;1.07;;;17.00;69.90;18.10;100491.00;;;;4973802;28;20185;-48
2022/10/16 06:09:49;;;;;;;1.40;1.30;;;17.00;69.90;18.10;100499.00;;;;4974043;28;20176;-47
2022/10/16 06:12:15;;;;;;;1.20;1.20;;;16.90;69.80;18.10;100497.00;;;;4974020;28;20695;-48
2022/10/16 06:14:41;;;;;;;1.27;1.23;;;17.00;69.90;18.10;100513.00;;;;4973819;28;20243;-47
2022/10/16 06:17:07;;;;;;;1.20;1.20;;;17.00;69.90;18.10;100518.00;;;;4974366;28;20203;-47
2022/10/16 06:19:32;;;;;;;1.40;1.30;;;16.90;69.80;18.10;100522.00;;;;4972322;28;20195;-47
2022/10/16 06:21:58;;;;;;;1.10;1.10;;;16.90;69.80;18.10;100510.00;;;;4973925;28;20177;-48
2022/10/16 06:24:25;;;;;;;1.20;1.20;;;16.90;69.80;18.10;100517.00;;;;4973579;28;20216;-48
2022/10/16 06:26:50;;;;;;;1.23;1.23;;;16.90;69.80;18.10;100517.00;;;;4973717;28;20173;-47
2022/10/16 06:29:16;;;;;;;1.23;1.23;;;17.00;69.90;18.10;100528.00;;;;4974283;28;20188;-48
2022/10/16 06:31:42;;;;;;;1.40;1.30;;;16.90;69.70;18.10;100524.00;;;;4974188;28;20173;-47
2022/10/16 06:34:11;;;;;;;1.07;1.07;;;16.90;69.70;18.10;100520.00;;;;4955834;28;20651;-47
2022/10/16 06:36:38;;;;;;;0.93;0.93;;;16.90;69.80;18.10;100523.00;;;;4973464;28;20264;-48
2022/10/16 06:39:05;;;;;;;1.50;1.40;;;16.90;69.80;18.10;100524.00;;;;4973778;28;20212;-47
2022/10/16 06:41:30;;;;;;;1.00;1.00;;;16.90;69.80;18.00;100527.00;;;;4973415;28;20196;-47
2022/10/16 06:43:56;;;;;;;1.10;1.10;;;16.90;69.80;18.00;100524.00;;;;4973493;28;20266;-47
2022/10/16 06:46:23;;;;;;;1.10;1.10;;;16.90;69.80;18.10;100542.00;;;;4973479;28;20177;-46
2022/10/16 06:48:49;;;;;;;1.07;1.07;;;16.90;69.80;18.00;100555.00;;;;4974632;28;20201;-47
2022/10/16 06:51:20;;;;;;;1.17;1.17;;;16.90;69.80;18.00;100550.00;;;;4974916;28;20235;-47
2022/10/16 06:53:51;;;;;;;1.10;1.10;;;16.90;69.80;18.00;100548.00;;;;4973307;28;20189;-47
2022/10/16 06:56:21;;;;;;;1.13;1.13;;;16.90;69.80;18.00;100563.00;;;;4972946;28;20178;-47
2022/10/16 06:58:47;;;;;;;1.20;1.20;;;16.90;69.80;18.00;100581.00;;;;4971171;28;20205;-46
2022/10/16 07:01:13;;;;;;;1.07;1.00;;;16.90;69.70;18.00;100566.00;;;;4973107;28;20173;-47
2022/10/16 07:03:40;;;;;;;0.83;0.83;;;16.90;69.80;18.00;100557.00;;;;4972835;28;20211;-47
2022/10/16 07:06:07;;;;;;;0.80;0.80;;;16.90;69.80;18.00;100574.00;;;;4971646;28;20174;-47
2022/10/16 07:08:37;;;;;;;1.00;1.00;;;16.90;69.80;18.00;100592.00;;;;4972832;28;20276;-47
2022/10/16 07:11:07;;;;;;;1.27;1.20;;;16.90;69.70;18.00;100592.00;;;;4956036;28;20192;-47
2022/10/16 07:13:34;;;;;;;1.30;1.20;;;16.90;69.70;18.00;100603.00;;;;4972673;28;20170;-47
2022/10/16 07:16:14;;;;;;;1.30;1.30;;;16.90;69.70;18.00;100601.00;;;;4972482;28;20187;-47
2022/10/16 07:18:40;;;;;;;1.17;1.17;;;16.90;69.70;18.00;100603.00;;;;4972293;28;20207;-47
2022/10/16 07:21:25;;;;;;;1.10;1.03;;;16.90;69.70;18.00;100611.00;;;;4972897;28;20169;-47
2022/10/16 07:23:56;;;;;;;1.20;1.20;;;16.90;69.80;18.00;100617.00;;;;4972234;28;20631;-48
2022/10/16 07:26:23;;;;;;;1.10;1.10;;;16.90;69.80;18.00;100622.00;;;;4971892;28;20205;-48
2022/10/16 07:28:48;;;;;;;1.77;1.17;;;16.90;69.80;18.00;100621.00;;;;4972376;28;20205;-47
2022/10/16 07:31:15;;;;;;;1.43;1.13;;;16.90;69.80;18.00;100624.00;;;;4972374;28;20186;-47
2022/10/16 07:33:42;;;;;;;2.73;1.40;;;17.00;70.00;18.00;100625.00;;;;4972325;28;20182;-47
2022/10/16 07:36:08;;;;;;;1.20;1.20;;;17.00;70.00;18.00;100629.00;;;;4972971;28;20182;-47
2022/10/16 07:38:34;;;;;;;2.37;1.40;;;16.90;70.10;18.00;100638.00;;;;4972422;28;20236;-47
2022/10/16 07:41:20;;;;;;;1.17;1.17;;;17.00;70.10;18.00;100634.00;;;;4972301;28;20177;-47
2022/10/16 07:43:51;;;;;;;1.07;1.07;;;16.90;70.10;18.00;100635.00;;;;4972209;28;20662;-47
2022/10/16 07:46:17;;;;;;;1.80;1.40;;;16.90;70.20;18.00;100614.00;;;;4972699;28;20586;-47
2022/10/16 07:48:45;;;;;;;1.60;1.23;;;16.90;70.10;18.00;100645.00;;;;4971008;28;20227;-48
2022/10/16 07:51:11;;;;;;;1.23;1.23;;;16.90;70.10;18.00;100640.00;;;;4972478;28;20178;-47
2022/10/16 07:53:37;;;;;;;2.03;1.37;;;16.90;70.10;18.00;100644.00;;;;4970411;28;20181;-48
2022/10/16 07:56:05;;;;;;;1.73;1.23;;;16.90;70.20;18.00;100644.00;;;;4971084;28;20255;-48
2022/10/16 07:58:31;;;;;;;1.40;1.30;;;16.90;70.20;18.00;100654.00;;;;4970539;28;20217;-47
2022/10/16 08:00:57;;;;;;;1.40;1.30;;;16.90;70.20;18.00;100666.00;;;;4972247;28;20184;-47
2022/10/16 08:03:23;;;;;;;4.43;1.23;;;16.90;70.20;18.00;100666.00;;;;4977042;28;20175;-48
2022/10/16 08:05:49;;;;;;;0.80;0.80;;;16.90;70.30;18.00;100675.00;;;;4975843;28;20175;-48
2022/10/16 08:08:16;;;;;;;1.30;1.20;;;16.90;70.30;18.00;100678.00;;;;4971534;28;20203;-45
2022/10/16 08:10:42;;;;;;;1.13;1.00;;;16.90;70.30;18.00;100679.00;;;;4970291;28;20231;-45
2022/10/16 08:13:08;;;;;;;1.20;1.17;;;16.80;70.20;18.00;100676.00;;;;4971659;28;20273;-46
2022/10/16 08:15:34;;;;;;;1.40;1.30;;;16.90;70.30;18.00;100682.00;;;;4970608;28;20177;-46
2022/10/16 08:18:04;;;;;;;1.37;1.23;;;16.90;70.40;18.00;100687.00;;;;4970282;28;20197;-47
2022/10/16 08:20:30;;;;;;;1.00;1.00;;;16.90;70.30;18.00;100685.00;;;;4970093;28;20637;-47
2022/10/16 08:22:56;;;;;;;1.10;1.10;;;16.90;70.40;18.00;100688.00;;;;4971354;28;20643;-48
2022/10/16 08:25:22;;;;;;;1.30;1.20;;;16.90;70.30;18.00;100695.00;;;;4972256;28;20176;-47
2022/10/16 08:27:48;;;;;;;1.23;1.23;;;16.90;70.40;18.00;100699.00;;;;4971216;28;20209;-47
2022/10/16 08:30:15;;;;;;;1.07;1.07;;;16.90;70.50;18.00;100688.00;;;;4971301;28;20185;-48
2022/10/16 08:32:41;;;;;;;1.13;1.13;;;16.90;70.60;18.00;100675.00;;;;4971243;28;20561;-47
2022/10/16 08:35:11;;;;;;;1.27;1.17;;;16.90;70.50;18.00;100701.00;;;;4971260;28;20216;-48
2022/10/16 08:37:36;;;;;;;1.10;1.00;;;16.90;70.60;18.00;100700.00;;;;4970408;28;20543;-47
2022/10/16 08:40:04;;;;;;;2.70;1.30;;;16.90;70.60;18.00;100709.00;;;;4971278;28;20213;-47
2022/10/16 08:42:57;;;;;;;1.00;1.00;;;16.90;70.60;18.00;100716.00;;;;4971373;28;20184;-47
2022/10/16 08:45:43;;;;;;;1.87;1.30;;;16.90;70.60;18.00;100723.00;;;;4970793;28;20161;-47
2022/10/16 08:48:27;;;;;;;1.00;1.00;;;16.90;70.70;18.00;100724.00;;;;4969964;28;20354;-48
2022/10/16 08:50:53;;;;;;;1.20;1.10;;;16.90;70.70;18.00;100724.00;;;;4971626;28;20730;-48
2022/10/16 08:53:44;;;;;;;1.30;1.20;;;17.00;70.90;18.00;100725.00;;;;4969667;28;20453;-47
2022/10/16 08:56:10;;;;;;;1.20;1.20;;;16.90;70.90;18.00;100737.00;;;;4972132;28;20185;-47
2022/10/16 08:58:36;;;;;;;1.20;1.20;;;16.90;70.80;18.00;100741.00;;;;4969527;28;20765;-47
2022/10/16 09:01:04;;;;;;;1.10;1.10;;;16.90;70.90;18.00;100735.00;;;;4970997;28;20172;-47
2022/10/16 09:03:54;;;;;;;1.00;1.00;;;16.90;70.90;18.00;100739.00;;;;4969803;28;20332;-48
2022/10/16 09:06:30;;;;;;;1.30;1.20;;;16.90;71.00;18.00;100750.00;;;;4970710;28;20240;-47
2022/10/16 09:09:09;;;;;;;1.40;1.30;;;17.00;71.10;18.00;100747.00;;;;4970941;28;20209;-47
2022/10/16 09:11:57;;;;;;;1.90;1.10;;;16.90;71.00;18.00;100731.00;;;;4969887;28;20169;-47
2022/10/16 09:14:37;;;;;;;1.10;1.10;;;17.00;71.20;18.00;100733.00;;;;4969503;28;20190;-47
2022/10/16 09:17:37;;;;;;;1.10;1.10;;;16.90;71.40;18.00;100744.00;;;;4969575;28;20232;-47
2022/10/16 09:20:39;;;;;;;1.53;1.30;;;16.90;71.30;18.00;100736.00;;;;4970662;28;20205;-47
2022/10/16 09:23:04;;;;;;;1.00;1.00;;;16.90;71.40;18.00;100739.00;;;;4972181;28;20326;-48
2022/10/16 09:25:30;;;;;;;0.93;0.93;;;17.00;71.40;18.00;100738.00;;;;4974526;28;20173;-47
2022/10/16 09:27:56;;;;;;;1.10;1.10;;;17.00;71.50;18.10;100740.00;;;;4973940;28;20686;-48
2022/10/16 09:30:22;;;;;;;1.10;1.07;;;17.00;71.50;18.10;100746.00;;;;4974438;28;20190;-48
2022/10/16 09:32:50;;;;;;;1.87;1.30;;;17.00;71.50;18.10;100736.00;;;;4975317;28;20184;-48
2022/10/16 09:35:22;;;;;;;1.30;1.20;;;17.00;71.50;18.10;100744.00;;;;4973803;28;20577;-47
2022/10/16 09:37:51;;;;;;;1.10;1.10;;;17.00;71.50;18.10;100743.00;;;;4957787;28;20747;-47
2022/10/16 09:40:38;;;;;;;0.83;0.83;;;17.00;71.50;18.10;100753.00;;;;4974888;28;20199;-47
2022/10/16 09:43:30;;;;;;;0.87;0.87;;;17.20;71.70;18.10;100753.00;;;;4975084;28;20172;-48
2022/10/16 09:45:58;;;;;;;0.93;0.93;;;17.10;71.60;18.10;100754.00;;;;4973600;28;20193;-48
2022/10/16 09:48:24;;;;;;;1.13;1.00;;;17.10;71.70;18.10;100754.00;;;;4975537;28;20192;-48
2022/10/16 09:51:01;;;;;;;0.80;0.80;;;17.10;71.70;18.20;100756.00;;;;4958626;28;20181;-46
2022/10/16 09:53:44;;;;;;;1.17;1.10;;;17.10;71.90;18.20;100757.00;;;;4975407;28;20154;-47
2022/10/16 09:56:13;;;;;;;0.83;0.83;;;17.10;71.90;18.20;100764.00;;;;4973024;28;20182;-47
2022/10/16 09:58:44;;;;;;;1.57;1.47;;;17.10;71.90;18.20;100756.00;;;;4974013;28;20295;-49
2022/10/16 10:01:14;;;;;;;1.20;1.10;;;17.10;72.00;18.20;100753.00;;;;4974249;28;20665;-47
2022/10/16 10:03:41;;;;;;;1.10;1.10;;;17.20;72.40;18.20;100757.00;;;;4973818;28;20661;-47
2022/10/16 10:06:17;;;;;;;0.97;0.97;;;17.10;72.40;18.20;100763.00;;;;4972968;28;20174;-47
2022/10/16 10:09:02;;;;;;;1.37;0.77;;;17.10;72.40;18.20;100770.00;;;;4972427;28;20561;-47
2022/10/16 10:11:42;;;;;;;1.10;1.10;;;17.20;72.70;18.20;100776.00;;;;4957778;28;20177;-47
2022/10/16 10:14:18;;;;;;;1.10;1.10;;;17.20;73.00;18.30;100758.00;;;;4973310;28;20183;-47
2022/10/16 10:16:44;;;;;;;1.37;1.27;;;17.20;73.00;18.30;100750.00;;;;4972567;28;20193;-47
2022/10/16 10:19:23;;;;;;;1.30;1.10;;;17.20;73.40;18.30;100757.00;;;;4973460;28;20265;-47
2022/10/16 10:21:50;;;;;;;1.23;1.20;;;17.20;73.30;18.30;100758.00;;;;4973541;28;20169;-47
2022/10/16 10:24:17;;;;;;;1.77;1.10;;;17.20;73.40;18.30;100769.00;;;;4972225;28;20173;-48
2022/10/16 10:27:03;;;;;;;1.30;1.20;;;17.20;73.30;18.30;100772.00;;;;4973443;28;20553;-47
2022/10/16 10:29:56;;;;;;;1.17;1.10;;;17.20;73.50;18.30;100761.00;;;;4957809;28;20256;-48
2022/10/16 10:32:51;;;;;;;1.30;1.20;;;17.30;73.60;18.30;100757.00;;;;4973065;28;20166;-48
2022/10/16 10:35:25;;;;;;;1.10;1.10;;;17.30;73.70;18.30;100757.00;;;;4973311;28;20331;-47
2022/10/16 10:37:53;;;;;;;1.10;1.10;;;17.20;73.60;18.30;100756.00;;;;4961201;28;20234;-47
2022/10/16 10:40:30;;;;;;;1.40;1.30;;;17.30;74.00;18.30;100761.00;;;;4976277;28;20216;-47
2022/10/16 10:43:20;;;;;;;1.17;1.07;;;17.30;74.00;18.30;100740.00;;;;4973882;28;20243;-48
2022/10/16 10:45:47;;;;;;;1.03;1.03;;;17.30;74.00;18.40;100754.00;;;;4974561;28;20161;-47
2022/10/16 10:48:34;;;;;;;1.10;1.10;;;17.30;74.00;18.40;100773.00;;;;4973252;28;20765;-47
2022/10/16 10:51:13;;;;;;;1.00;1.00;;;17.40;74.20;18.40;100766.00;;;;4972019;28;20181;-46
2022/10/16 10:54:13;;;;;;;1.20;1.10;;;17.40;74.10;18.40;100763.00;;;;4970302;28;20185;-47
2022/10/16 10:56:52;;;;;;;1.10;1.00;;;17.30;73.90;18.40;100764.00;;;;4972073;28;20280;-47
2022/10/16 11:00:29;;;;;;;1.73;1.13;;;17.40;74.20;18.40;100762.00;;;;4973366;28;20198;-47